Observation data for Friona on 02/21/2019      Previous  Date  Next       Current Mesonet Observations  Soil Data  Daily Summary Page  Observations in Plain Language
KFAS 210600Z 28001KT M07/M15 A2981 RMK A01 T10711147  RH  054%=      5-min Rain = 0
KFAS 210605Z 27001KT M07/M14 A2981 RMK A01 T10691139  RH  057%=      5-min Rain = 0
KFAS 210610Z 19001KT M07/M14 A2981 RMK A01 T10651137  RH  056%=      5-min Rain = 0
KFAS 210615Z 17003KT M06/M14 A2981 RMK A01 T10621135  RH  056%=      5-min Rain = 0
KFAS 210620Z 17002KT M07/M14 A2981 RMK A01 T10651135  RH  057%=      5-min Rain = 0
KFAS 210625Z 18002KT M07/M14 A2981 RMK A01 T10671137  RH  057%=      5-min Rain = 0
KFAS 210630Z 21002KT M08/M14 A2981 RMK A01 T10751144  RH  057%=      5-min Rain = 0
KFAS 210635Z 18002KT M08/M14 A2981 RMK A01 T10761136  RH  062%=      5-min Rain = 0
KFAS 210640Z 19002KT M07/M13 A298 RMK A01 T10701134  RH  060%=      5-min Rain = 0
KFAS 210645Z 19003KT M07/M14 A298 RMK A01 T10701137  RH  059%=      5-min Rain = 0
KFAS 210650Z 21003KT M07/M14 A2981 RMK A01 T10701140  RH  057%=      5-min Rain = 0
KFAS 210655Z 22002KT M08/M15 A298 RMK A01 T10771147  RH  057%=      5-min Rain = 0
KFAS 210700Z 22002KT M08/M15 A298 RMK A01 T10811149  RH  058%=      5-min Rain = 0
KFAS 210705Z 20002KT M08/M15 A298 RMK A01 T10841148  RH  059%=      5-min Rain = 0
KFAS 210710Z 18003KT M08/M14 A2981 RMK A01 T10811142  RH  061%=      5-min Rain = 0
KFAS 210715Z 18002KT M08/M14 A298 RMK A01 T10781139  RH  061%=      5-min Rain = 0
KFAS 210720Z 16001KT M08/M14 A298 RMK A01 T10761140  RH  060%=      5-min Rain = 0
KFAS 210725Z 14001KT M08/M14 A298 RMK A01 T10751142  RH  058%=      5-min Rain = 0
KFAS 210730Z 12002KT M07/M14 A298 RMK A01 T10741143  RH  057%=      5-min Rain = 0
KFAS 210735Z 12003KT M07/M14 A298 RMK A01 T10711140  RH  057%=      5-min Rain = 0
KFAS 210740Z 12004KT M07/M14 A2979 RMK A01 T10691138  RH  057%=      5-min Rain = 0
KFAS 210745Z 13006KT M07/M14 A2979 RMK A01 T10681143  RH  055%=      5-min Rain = 0
KFAS 210750Z 12003KT M07/M14 A298 RMK A01 T10691144  RH  055%=      5-min Rain = 0
KFAS 210755Z 09001KT M07/M14 A298 RMK A01 T10721138  RH  059%=      5-min Rain = 0
KFAS 210800Z 13003KT M07/M13 A298 RMK A01 T10661134  RH  058%=      5-min Rain = 0
KFAS 210805Z 14003KT M06/M13 A298 RMK A01 T10591133  RH  056%=      5-min Rain = 0
KFAS 210810Z 15003KT M05/M13 A298 RMK A01 T10521132  RH  053%=      5-min Rain = 0
KFAS 210815Z 16003KT M05/M13 A298 RMK A01 T10451133  RH  050%=      5-min Rain = 0
KFAS 210820Z 16003KT M04/M14 A298 RMK A01 T10391135  RH  047%=      5-min Rain = 0
KFAS 210825Z 16004KT M04/M14 A298 RMK A01 T10371136  RH  046%=      5-min Rain = 0
KFAS 210830Z 16005KT M04/M13 A298 RMK A01 T10381134  RH  047%=      5-min Rain = 0
KFAS 210835Z 17005KT M04/M13 A2981 RMK A01 T10371133  RH  047%=      5-min Rain = 0
KFAS 210840Z 17005KT M03/M13 A2981 RMK A01 T10341134  RH  045%=      5-min Rain = 0
KFAS 210845Z 16005KT M03/M13 A2981 RMK A01 T10301130  RH  046%=      5-min Rain = 0
KFAS 210850Z 16006KT M03/M12 A2981 RMK A01 T10281124  RH  047%=      5-min Rain = 0
KFAS 210855Z 16005KT M03/M12 A298 RMK A01 T10261120  RH  048%=      5-min Rain = 0
KFAS 210900Z 16004KT M02/M12 A298 RMK A01 T10241121  RH  047%=      5-min Rain = 0
KFAS 210905Z 16005KT M02/M12 A298 RMK A01 T10221122  RH  046%=      5-min Rain = 0
KFAS 210910Z 16006KT M02/M12 A298 RMK A01 T10211120  RH  046%=      5-min Rain = 0
KFAS 210915Z 18006KT M02/M12 A298 RMK A01 T10201118  RH  046%=      5-min Rain = 0
KFAS 210920Z 18007KT M02/M12 A298 RMK A01 T10171117  RH  046%=      5-min Rain = 0
KFAS 210925Z 18008KT M01/M11 A298 RMK A01 T10131114  RH  046%=      5-min Rain = 0
KFAS 210930Z 18007KT M01/M11 A298 RMK A01 T10131112  RH  046%=      5-min Rain = 0
KFAS 210935Z 18007KT M01/M11 A2979 RMK A01 T10131112  RH  047%=      5-min Rain = 0
KFAS 210940Z 17006KT M01/M11 A298 RMK A01 T10141112  RH  047%=      5-min Rain = 0
KFAS 210945Z 17006KT M01/M11 A2979 RMK A01 T10111113  RH  046%=      5-min Rain = 0
KFAS 210950Z 18004KT M01/M11 A2979 RMK A01 T10061114  RH  044%=      5-min Rain = 0
KFAS 210955Z 17002KT M01/M12 A2979 RMK A01 T10061115  RH  043%=      5-min Rain = 0
KFAS 211000Z 12000KT M01/M12 A2979 RMK A01 T10071115  RH  043%=      5-min Rain = 0
KFAS 211005Z 21001KT M01/M12 A2979 RMK A01 T10081115  RH  044%=      5-min Rain = 0
KFAS 211010Z 19005KT M01/M11 A298 RMK A01 T10071108  RH  046%=      5-min Rain = 0
KFAS 211015Z 20005KT M00/M11 A298 RMK A01 T10031105  RH  046%=      5-min Rain = 0
KFAS 211020Z 20007KT M00/M11 A298 RMK A01 T10011107  RH  045%=      5-min Rain = 0
KFAS 211025Z 19007KT 00/M11 A298 RMK A01 T00021106  RH  044%=      5-min Rain = 0
KFAS 211030Z 19007KT 00/M11 A2979 RMK A01 T00031105  RH  044%=      5-min Rain = 0
KFAS 211035Z 18008KT 00/M11 A2979 RMK A01 T00041106  RH  043%=      5-min Rain = 0
KFAS 211040Z 18009KT 01/M11 A2979 RMK A01 T00051107  RH  043%=      5-min Rain = 0
KFAS 211045Z 19009KT 01/M11 A2979 RMK A01 T00061105  RH  043%=      5-min Rain = 0
KFAS 211050Z 19010KT 01/M11 A2979 RMK A01 T00081105  RH  042%=      5-min Rain = 0
KFAS 211055Z 19010KT 01/M11 A2979 RMK A01 T00091105  RH  042%=      5-min Rain = 0
KFAS 211100Z 19009KT 01/M11 A2979 RMK A01 T00101105  RH  042%=      5-min Rain = 0
KFAS 211105Z 19009KT 01/M11 A2979 RMK A01 T00121105  RH  041%=      5-min Rain = 0
KFAS 211110Z 19010KT 02/M11 A2979 RMK A01 T00151108  RH  039%=      5-min Rain = 0
KFAS 211115Z 18010KT 02/M11 A2979 RMK A01 T00171107  RH  039%=      5-min Rain = 0
KFAS 211120Z 18009KT 02/M11 A2979 RMK A01 T00161109  RH  039%=      5-min Rain = 0
KFAS 211125Z 18009KT 02/M11 A2979 RMK A01 T00151108  RH  039%=      5-min Rain = 0
KFAS 211130Z 18008KT 02/M11 A2979 RMK A01 T00161108  RH  039%=      5-min Rain = 0
KFAS 211135Z 18007KT 01/M11 A298 RMK A01 T00141107  RH  040%=      5-min Rain = 0
KFAS 211140Z 19008KT 01/M11 A298 RMK A01 T00131107  RH  040%=      5-min Rain = 0
KFAS 211145Z 19007KT 02/M11 A298 RMK A01 T00151105  RH  040%=      5-min Rain = 0
KFAS 211150Z 18007KT 01/M10 A298 RMK A01 T00131103  RH  041%=      5-min Rain = 0
KFAS 211155Z 19007KT 01/M10 A298 RMK A01 T00131104  RH  041%=      5-min Rain = 0
KFAS 211200Z 20005KT 01/M10 A2981 RMK A01 T00131101  RH  042%=      5-min Rain = 0
KFAS 211205Z 22004KT 01/M10 A2981 RMK A01 T00101102  RH  043%=      5-min Rain = 0
KFAS 211210Z 22004KT 01/M10 A2981 RMK A01 T00081103  RH  043%=      5-min Rain = 0
KFAS 211215Z 21004KT 01/M10 A2981 RMK A01 T00061102  RH  044%=      5-min Rain = 0
KFAS 211220Z 20004KT 01/M10 A2981 RMK A01 T00061102  RH  044%=      5-min Rain = 0
KFAS 211225Z 20002KT 01/M10 A2981 RMK A01 T00061102  RH  044%=      5-min Rain = 0
KFAS 211230Z 18002KT 01/M10 A2981 RMK A01 T00051102  RH  044%=      5-min Rain = 0
KFAS 211235Z 18001KT 01/M10 A2981 RMK A01 T00051100  RH  045%=      5-min Rain = 0
KFAS 211240Z 09001KT 01/M10 A2981 RMK A01 T00051100  RH  045%=      5-min Rain = 0
KFAS 211245Z 06001KT 01/M10 A2981 RMK A01 T00051101  RH  045%=      5-min Rain = 0
KFAS 211250Z 31002KT 00/M10 A2981 RMK A01 T00021100  RH  046%=      5-min Rain = 0
KFAS 211255Z 29002KT M00/M10 A2981 RMK A01 T10021100  RH  047%=      5-min Rain = 0
KFAS 211300Z 19004KT M00/M10 A2981 RMK A01 T10011100  RH  047%=      5-min Rain = 0
KFAS 211305Z 17004KT 00/10 A2981 RMK A01 T00000-98  RH  047%=      5-min Rain = 0
KFAS 211310Z 17003KT 00/M10 A2981 RMK A01 T00011098  RH  047%=      5-min Rain = 0
KFAS 211315Z 17002KT 00/10 A2981 RMK A01 T00000-97  RH  048%=      5-min Rain = 0
KFAS 211320Z 24002KT 00/M10 A2981 RMK A01 T00011097  RH  047%=      5-min Rain = 0
KFAS 211325Z 22002KT 00/M10 A2981 RMK A01 T00041097  RH  047%=      5-min Rain = 0
KFAS 211330Z 21002KT 00/M10 A2981 RMK A01 T00031097  RH  047%=      5-min Rain = 0
KFAS 211335Z 31002KT 00/10 A2981 RMK A01 T00000-97  RH  048%=      5-min Rain = 0
KFAS 211340Z 32002KT M00/M10 A2981 RMK A01 T10031097  RH  049%=      5-min Rain = 0
KFAS 211345Z 32002KT M00/M10 A2981 RMK A01 T10041098  RH  049%=      5-min Rain = 0
KFAS 211350Z 30002KT M00/M10 A298 RMK A01 T10021100  RH  048%=      5-min Rain = 0
KFAS 211355Z 29002KT 00/M10 A298 RMK A01 T00021101  RH  045%=      5-min Rain = 0
KFAS 211400Z 29001KT 00/M10 A298 RMK A01 T00041101  RH  045%=      5-min Rain = 0
KFAS 211405Z 29001KT 01/M10 A298 RMK A01 T00051099  RH  045%=      5-min Rain = 0
KFAS 211410Z 10001KT 01/M09 A298 RMK A01 T00051093  RH  048%=      5-min Rain = 0
KFAS 211415Z 12007KT 00/M10 A2981 RMK A01 T00041100  RH  045%=      5-min Rain = 0
KFAS 211420Z 10007KT 01/M10 A298 RMK A01 T00051096  RH  046%=      5-min Rain = 0
KFAS 211425Z 11006KT 01/M09 A2981 RMK A01 T00061093  RH  047%=      5-min Rain = 0
KFAS 211430Z 11005KT 01/M09 A2982 RMK A01 T00081087  RH  049%=      5-min Rain = 0
KFAS 211435Z 12007KT 01/M09 A2982 RMK A01 T00101086  RH  049%=      5-min Rain = 0
KFAS 211440Z 12006KT 01/M08 A2982 RMK A01 T00131082  RH  049%=      5-min Rain = 0
KFAS 211445Z 12007KT 02/M08 A2982 RMK A01 T00151077  RH  050%=      5-min Rain = 0
KFAS 211450Z 13007KT 02/M07 A2982 RMK A01 T00191070  RH  052%=      5-min Rain = 0
KFAS 211455Z 13008KT 02/M07 A2981 RMK A01 T00241065  RH  052%=      5-min Rain = 0
KFAS 211500Z 14006KT 03/M06 A2982 RMK A01 T00281059  RH  053%=      5-min Rain = 0
KFAS 211505Z 14006KT 03/M05 A2982 RMK A01 T00321053  RH  053%=      5-min Rain = 0
KFAS 211510Z 13006KT 04/M05 A2982 RMK A01 T00351051  RH  054%=      5-min Rain = 0
KFAS 211515Z 14007KT 04/M05 A2982 RMK A01 T00371047  RH  055%=      5-min Rain = 0
KFAS 211520Z 14007KT 04/M04 A2982 RMK A01 T00371044  RH  055%=      5-min Rain = 0
KFAS 211525Z 14007KT 04/M04 A2982 RMK A01 T00381042  RH  056%=      5-min Rain = 0
KFAS 211530Z 14006KT 04/M04 A2982 RMK A01 T00411040  RH  056%=      5-min Rain = 0
KFAS 211535Z 14008KT 05/M04 A2982 RMK A01 T00461036  RH  055%=      5-min Rain = 0
KFAS 211540Z 14010KT 06/M03 A2982 RMK A01 T00551033  RH  053%=      5-min Rain = 0
KFAS 211545Z 14012KT 06/M03 A2982 RMK A01 T00601033  RH  051%=      5-min Rain = 0
KFAS 211550Z 15011KT 06/M03 A2982 RMK A01 T00631031  RH  051%=      5-min Rain = 0
KFAS 211555Z 16013KT 07/M03 A2982 RMK A01 T00671030  RH  050%=      5-min Rain = 0
KFAS 211600Z 16012KT 07/M03 A2982 RMK A01 T00671030  RH  050%=      5-min Rain = 0
KFAS 211605Z 16014KT 07/M03 A2982 RMK A01 T00711028  RH  050%=      5-min Rain = 0
KFAS 211610Z 16014KT 07/M03 A2982 RMK A01 T00731030  RH  048%=      5-min Rain = 0
KFAS 211615Z 16013KT 07/M03 A2982 RMK A01 T00741030  RH  048%=      5-min Rain = 0
KFAS 211620Z 17014G20KT 07/M03 A2982 RMK A01 T00741031  RH  047%=      5-min Rain = 0
KFAS 211625Z 17014KT 07/M03 A2982 RMK A01 T00731030  RH  048%=      5-min Rain = 0
KFAS 211630Z 18014G19KT 08/M03 A2982 RMK A01 T00791028  RH  047%=      5-min Rain = 0
KFAS 211635Z 17015G20KT 08/M03 A2982 RMK A01 T00841028  RH  046%=      5-min Rain = 0
KFAS 211640Z 18013KT 09/M03 A2982 RMK A01 T00861027  RH  045%=      5-min Rain = 0
KFAS 211645Z 19015G21KT 09/M03 A2982 RMK A01 T00881027  RH  045%=      5-min Rain = 0
KFAS 211650Z 19015KT 09/M03 A2982 RMK A01 T00881027  RH  044%=      5-min Rain = 0
KFAS 211655Z 18017KT 09/M03 A2982 RMK A01 T00901028  RH  044%=      5-min Rain = 0
KFAS 211700Z 19015KT 09/M03 A2982 RMK A01 T00911028  RH  043%=      5-min Rain = 0
KFAS 211705Z 19015G22KT 09/M03 A2982 RMK A01 T00941030  RH  042%=      5-min Rain = 0
KFAS 211710Z 18016KT 10/M03 A2982 RMK A01 T00951030  RH  042%=      5-min Rain = 0
KFAS 211715Z 18015G20KT 10/M03 A2982 RMK A01 T00961029  RH  042%=      5-min Rain = 0
KFAS 211720Z 18015G20KT 10/M03 A2982 RMK A01 T00971031  RH  041%=      5-min Rain = 0
KFAS 211725Z 19014G19KT 10/M03 A2982 RMK A01 T00991030  RH  040%=      5-min Rain = 0
KFAS 211730Z 18015G20KT 10/M03 A2981 RMK A01 T01011030  RH  040%=      5-min Rain = 0
KFAS 211735Z 17015G21KT 11/M03 A2981 RMK A01 T01051029  RH  039%=      5-min Rain = 0
KFAS 211740Z 19014G19KT 11/M03 A2981 RMK A01 T01101034  RH  037%=      5-min Rain = 0
KFAS 211745Z 18016KT 11/M03 A2981 RMK A01 T01111032  RH  037%=      5-min Rain = 0
KFAS 211750Z 18014G20KT 12/M03 A2981 RMK A01 T01151034  RH  035%=      5-min Rain = 0
KFAS 211755Z 18015KT 12/M03 A298 RMK A01 T01171033  RH  035%=      5-min Rain = 0
KFAS 211800Z 19013G18KT 12/M04 A298 RMK A01 T01231038  RH  032%=      5-min Rain = 0
KFAS 211805Z 19015G21KT 13/M04 A298 RMK A01 T01271041  RH  031%=      5-min Rain = 0
KFAS 211810Z 19014G20KT 13/M04 A298 RMK A01 T01271040  RH  031%=      5-min Rain = 0
KFAS 211815Z 18015KT 13/M04 A298 RMK A01 T01281039  RH  031%=      5-min Rain = 0
KFAS 211820Z 19014G20KT 13/M04 A298 RMK A01 T01301044  RH  030%=      5-min Rain = 0
KFAS 211825Z 20015G21KT 13/M04 A298 RMK A01 T01321044  RH  029%=      5-min Rain = 0
KFAS 211830Z 20014G22KT 13/M04 A298 RMK A01 T01331044  RH  029%=      5-min Rain = 0
KFAS 211835Z 20014G22KT 13/M05 A2979 RMK A01 T01311046  RH  029%=      5-min Rain = 0
KFAS 211840Z 21013G21KT 14/M05 A2979 RMK A01 T01351045  RH  028%=      5-min Rain = 0
KFAS 211845Z 21016G21KT 14/M05 A2979 RMK A01 T01421053  RH  026%=      5-min Rain = 0
KFAS 211850Z 20017KT 14/M05 A2979 RMK A01 T01411054  RH  026%=      5-min Rain = 0
KFAS 211855Z 21014G19KT 14/M05 A2979 RMK A01 T01411051  RH  026%=      5-min Rain = 0
KFAS 211900Z 22011G16KT 14/M05 A2979 RMK A01 T01421050  RH  026%=      5-min Rain = 0
KFAS 211905Z 22015G21KT 15/M06 A2978 RMK A01 T01461056  RH  024%=      5-min Rain = 0
KFAS 211910Z 22014G19KT 15/M05 A2978 RMK A01 T01471052  RH  025%=      5-min Rain = 0
KFAS 211915Z 20014G24KT 15/M05 A2978 RMK A01 T01471052  RH  025%=      5-min Rain = 0
KFAS 211920Z 21013KT 15/M05 A2978 RMK A01 T01471052  RH  025%=      5-min Rain = 0
KFAS 211925Z 20012G22KT 15/M05 A2977 RMK A01 T01481051  RH  025%=      5-min Rain = 0
KFAS 211930Z 18015G24KT 15/M06 A2977 RMK A01 T01491056  RH  024%=      5-min Rain = 0
KFAS 211935Z 20012G19KT 15/M06 A2977 RMK A01 T01491055  RH  024%=      5-min Rain = 0
KFAS 211940Z 19013G21KT 15/M06 A2976 RMK A01 T01491055  RH  024%=      5-min Rain = 0
KFAS 211945Z 20017G23KT 16/M06 A2976 RMK A01 T01551056  RH  023%=      5-min Rain = 0
KFAS 211950Z 20014G20KT 16/M06 A2976 RMK A01 T01571056  RH  023%=      5-min Rain = 0
KFAS 211955Z 18012G23KT 16/M06 A2976 RMK A01 T01571056  RH  023%=      5-min Rain = 0
KFAS 212000Z 18012G19KT 16/M06 A2975 RMK A01 T01561059  RH  022%=      5-min Rain = 0
KFAS 212005Z 19013G18KT 16/M06 A2975 RMK A01 T01561057  RH  023%=      5-min Rain = 0
KFAS 212010Z 17011G17KT 16/M06 A2975 RMK A01 T01571056  RH  023%=      5-min Rain = 0
KFAS 212015Z 18013G19KT 15/M06 A2974 RMK A01 T01541057  RH  023%=      5-min Rain = 0
KFAS 212020Z 17014KT 16/M06 A2974 RMK A01 T01571059  RH  022%=      5-min Rain = 0
KFAS 212025Z 18007G15KT 15/M06 A2974 RMK A01 T01491062  RH  023%=      5-min Rain = 0
KFAS 212030Z 20008G14KT 16/M06 A2973 RMK A01 T01571058  RH  022%=      5-min Rain = 0
KFAS 212035Z 23008G17KT 16/M06 A2973 RMK A01 T01581059  RH  022%=      5-min Rain = 0
KFAS 212040Z 21014G21KT 17/M06 A2973 RMK A01 T01681063  RH  020%=      5-min Rain = 0
KFAS 212045Z 17015G20KT 16/M06 A2973 RMK A01 T01641062  RH  021%=      5-min Rain = 0
KFAS 212050Z 17010G15KT 16/M06 A2973 RMK A01 T01641057  RH  022%=      5-min Rain = 0
KFAS 212055Z 17014KT 17/M06 A2973 RMK A01 T01701059  RH  020%=      5-min Rain = 0
KFAS 212100Z 18014KT 16/M07 A2973 RMK A01 T01631066  RH  020%=      5-min Rain = 0
KFAS 212105Z 18011KT 16/M07 A2972 RMK A01 T01621069  RH  020%=      5-min Rain = 0
KFAS 212110Z 18015G25KT 16/M07 A2972 RMK A01 T01641067  RH  020%=      5-min Rain = 0
KFAS 212115Z 18015G22KT 16/M07 A2972 RMK A01 T01621068  RH  020%=      5-min Rain = 0
KFAS 212120Z 18016KT 16/M07 A2972 RMK A01 T01631070  RH  020%=      5-min Rain = 0
KFAS 212125Z 17013G19KT 17/M07 A2972 RMK A01 T01671066  RH  020%=      5-min Rain = 0
KFAS 212130Z 17017G22KT 17/M07 A2972 RMK A01 T01711068  RH  019%=      5-min Rain = 0
KFAS 212135Z 18013KT 16/M07 A2972 RMK A01 T01621069  RH  020%=      5-min Rain = 0
KFAS 212140Z 19010KT 16/M07 A2972 RMK A01 T01561066  RH  021%=      5-min Rain = 0
KFAS 212145Z 18013G20KT 16/M06 A2972 RMK A01 T01631063  RH  021%=      5-min Rain = 0
KFAS 212150Z 18014G21KT 17/M06 A2972 RMK A01 T01711062  RH  020%=      5-min Rain = 0
KFAS 212155Z 17015G22KT 17/M06 A2972 RMK A01 T01681062  RH  020%=      5-min Rain = 0
KFAS 212200Z 17013KT 16/M06 A2972 RMK A01 T01591062  RH  021%=      5-min Rain = 0
KFAS 212205Z 17011KT 16/M06 A2972 RMK A01 T01601062  RH  021%=      5-min Rain = 0
KFAS 212210Z 18008KT 16/M06 A2971 RMK A01 T01591063  RH  021%=      5-min Rain = 0
KFAS 212215Z 18009KT 16/M06 A2971 RMK A01 T01581062  RH  021%=      5-min Rain = 0
KFAS 212220Z 18011G16KT 16/M06 A2971 RMK A01 T01591063  RH  021%=      5-min Rain = 0
KFAS 212225Z 19014G19KT 16/M07 A2971 RMK A01 T01591066  RH  021%=      5-min Rain = 0
KFAS 212230Z 19013KT 16/M07 A2972 RMK A01 T01591067  RH  021%=      5-min Rain = 0
KFAS 212235Z 17013G18KT 16/M07 A2972 RMK A01 T01581068  RH  021%=      5-min Rain = 0
KFAS 212240Z 14015G20KT 16/M05 A2972 RMK A01 T01581050  RH  024%=      5-min Rain = 0
KFAS 212245Z 14014KT 15/M05 A2972 RMK A01 T01531047  RH  025%=      5-min Rain = 0
KFAS 212250Z 14015KT 15/M05 A2972 RMK A01 T01501046  RH  026%=      5-min Rain = 0
KFAS 212255Z 13015KT 15/M05 A2972 RMK A01 T01491047  RH  026%=      5-min Rain = 0
KFAS 212300Z 13013KT 15/M05 A2972 RMK A01 T01491046  RH  026%=      5-min Rain = 0
KFAS 212305Z 12012G17KT 15/M05 A2972 RMK A01 T01471046  RH  026%=      5-min Rain = 0
KFAS 212310Z 14011KT 15/M05 A2972 RMK A01 T01461046  RH  026%=      5-min Rain = 0
KFAS 212315Z 13012G23KT 15/M04 A2972 RMK A01 T01451044  RH  027%=      5-min Rain = 0
KFAS 212320Z 12019KT 14/M04 A2972 RMK A01 T01441042  RH  028%=      5-min Rain = 0
KFAS 212325Z 12017KT 14/M04 A2972 RMK A01 T01431039  RH  028%=      5-min Rain = 0
KFAS 212330Z 14012G17KT 14/M04 A2973 RMK A01 T01411039  RH  029%=      5-min Rain = 0
KFAS 212335Z 15013KT 14/M04 A2973 RMK A01 T01381036  RH  030%=      5-min Rain = 0
KFAS 212340Z 16012G17KT 14/M04 A2973 RMK A01 T01371036  RH  030%=      5-min Rain = 0
KFAS 212345Z 15012G17KT 14/M04 A2973 RMK A01 T01351035  RH  031%=      5-min Rain = 0
KFAS 212350Z 15015G21KT 14/M04 A2973 RMK A01 T01351035  RH  031%=      5-min Rain = 0
KFAS 212355Z 14017KT 14/M03 A2973 RMK A01 T01351034  RH  031%=      5-min Rain = 0
KFAS 220000Z 14016G21KT 14/M03 A2973 RMK A01 T01351034  RH  031%=      5-min Rain = 0
KFAS 220005Z 14014KT 13/M03 A2974 RMK A01 T01341033  RH  031%=      5-min Rain = 0
KFAS 220010Z 14014KT 13/M03 A2974 RMK A01 T01331033  RH  032%=      5-min Rain = 0
KFAS 220015Z 14015KT 13/M03 A2974 RMK A01 T01321032  RH  032%=      5-min Rain = 0
KFAS 220020Z 13016G21KT 13/M03 A2974 RMK A01 T01311027  RH  033%=      5-min Rain = 0
KFAS 220025Z 13018G24KT 13/M02 A2974 RMK A01 T01301023  RH  035%=      5-min Rain = 0
KFAS 220030Z 13016KT 13/M02 A2974 RMK A01 T01291022  RH  035%=      5-min Rain = 0
KFAS 220035Z 14017G22KT 13/M02 A2975 RMK A01 T01281020  RH  036%=      5-min Rain = 0
KFAS 220040Z 14014KT 13/M02 A2976 RMK A01 T01261019  RH  037%=      5-min Rain = 0
KFAS 220045Z 13017G25KT 12/M02 A2976 RMK A01 T01241016  RH  038%=      5-min Rain = 0
KFAS 220050Z 13025G33KT 12/M01 A2975 RMK A01 T01221010  RH  040%=      5-min Rain = 0
KFAS 220055Z 13023G28KT 12/M01 A2976 RMK A01 T01201009  RH  041%=      5-min Rain = 0
KFAS 220100Z 13024G30KT 12/M01 A2976 RMK A01 T01191009  RH  042%=      5-min Rain = 0
KFAS 220105Z 13022G29KT 12/M01 A2977 RMK A01 T01171008  RH  042%=      5-min Rain = 0
KFAS 220110Z 13021G29KT 12/M01 A2978 RMK A01 T01151007  RH  043%=      5-min Rain = 0
KFAS 220115Z 12020G28KT 11/M01 A2978 RMK A01 T01131007  RH  044%=      5-min Rain = 0
KFAS 220120Z 12021G27KT 11/M01 A2978 RMK A01 T01121007  RH  044%=      5-min Rain = 0
KFAS 220125Z 13022G28KT 11/M01 A2978 RMK A01 T01111006  RH  045%=      5-min Rain = 0
KFAS 220130Z 13023G28KT 11/M01 A2978 RMK A01 T01091006  RH  045%=      5-min Rain = 0
KFAS 220135Z 13021G26KT 11/M01 A2978 RMK A01 T01061006  RH  046%=      5-min Rain = 0
KFAS 220140Z 13022G27KT 11/M01 A2978 RMK A01 T01051005  RH  047%=      5-min Rain = 0
KFAS 220145Z 13021KT 10/M01 A2978 RMK A01 T01041005  RH  047%=      5-min Rain = 0
KFAS 220150Z 13020G28KT 10/M00 A2979 RMK A01 T01021004  RH  048%=      5-min Rain = 0
KFAS 220155Z 13022G28KT 10/M00 A2979 RMK A01 T01011004  RH  049%=      5-min Rain = 0
KFAS 220200Z 13022G29KT 10/M00 A2979 RMK A01 T01001004  RH  049%=      5-min Rain = 0
KFAS 220205Z 13020KT 10/M00 A298 RMK A01 T00981003  RH  050%=      5-min Rain = 0
KFAS 220210Z 14019G25KT 10/M00 A298 RMK A01 T00961003  RH  050%=      5-min Rain = 0
KFAS 220215Z 13018G23KT 10/M00 A298 RMK A01 T00951003  RH  051%=      5-min Rain = 0
KFAS 220220Z 13018G23KT 09/M00 A298 RMK A01 T00941004  RH  051%=      5-min Rain = 0
KFAS 220225Z 13017G22KT 09/M00 A2981 RMK A01 T00931004  RH  051%=      5-min Rain = 0
KFAS 220230Z 13017G22KT 09/M00 A2981 RMK A01 T00911004  RH  052%=      5-min Rain = 0
KFAS 220235Z 13019G24KT 09/M00 A2981 RMK A01 T00901003  RH  052%=      5-min Rain = 0
KFAS 220240Z 13019G25KT 09/M00 A2981 RMK A01 T00901003  RH  053%=      5-min Rain = 0
KFAS 220245Z 13019G24KT 09/M00 A2981 RMK A01 T00891004  RH  053%=      5-min Rain = 0
KFAS 220250Z 13018G23KT 09/M00 A2981 RMK A01 T00871004  RH  053%=      5-min Rain = 0
KFAS 220255Z 13019KT 09/M00 A2982 RMK A01 T00861004  RH  054%=      5-min Rain = 0
KFAS 220300Z 14018G23KT 09/M00 A2982 RMK A01 T00851004  RH  054%=      5-min Rain = 0
KFAS 220305Z 14018G24KT 08/M00 A2982 RMK A01 T00841004  RH  054%=      5-min Rain = 0
KFAS 220310Z 13018G23KT 08/M01 A2982 RMK A01 T00821005  RH  055%=      5-min Rain = 0
KFAS 220315Z 13018KT 08/M01 A2983 RMK A01 T00811006  RH  055%=      5-min Rain = 0
KFAS 220320Z 13018G23KT 08/M01 A2983 RMK A01 T00791007  RH  055%=      5-min Rain = 0
KFAS 220325Z 13018KT 08/M01 A2983 RMK A01 T00771010  RH  055%=      5-min Rain = 0
KFAS 220330Z 14018G24KT 07/M01 A2983 RMK A01 T00741013  RH  054%=      5-min Rain = 0
KFAS 220335Z 14019G24KT 07/M02 A2983 RMK A01 T00721016  RH  054%=      5-min Rain = 0
KFAS 220340Z 14017G22KT 07/M02 A2983 RMK A01 T00701019  RH  054%=      5-min Rain = 0
KFAS 220345Z 13016G22KT 07/M02 A2984 RMK A01 T00671021  RH  054%=      5-min Rain = 0
KFAS 220350Z 13016KT 07/M02 A2984 RMK A01 T00651024  RH  053%=      5-min Rain = 0
KFAS 220355Z 13016KT 06/M03 A2984 RMK A01 T00611027  RH  054%=      5-min Rain = 0
KFAS 220400Z 13015G21KT 06/M03 A2984 RMK A01 T00591029  RH  054%=      5-min Rain = 0
KFAS 220405Z 13017G23KT 06/M03 A2985 RMK A01 T00561030  RH  054%=      5-min Rain = 0
KFAS 220410Z 13015KT 06/M03 A2985 RMK A01 T00551031  RH  054%=      5-min Rain = 0
KFAS 220415Z 13016KT 05/M03 A2985 RMK A01 T00531032  RH  054%=      5-min Rain = 0
KFAS 220420Z 13014G20KT 05/M03 A2986 RMK A01 T00521033  RH  054%=      5-min Rain = 0
KFAS 220425Z 13014G20KT 05/M03 A2986 RMK A01 T00511034  RH  054%=      5-min Rain = 0
KFAS 220430Z 13013KT 05/M03 A2986 RMK A01 T00501034  RH  055%=      5-min Rain = 0
KFAS 220435Z 13014KT 05/M04 A2987 RMK A01 T00491035  RH  055%=      5-min Rain = 0
KFAS 220440Z 13013KT 05/M04 A2987 RMK A01 T00471036  RH  055%=      5-min Rain = 0
KFAS 220445Z 13013KT 05/M04 A2987 RMK A01 T00461037  RH  055%=      5-min Rain = 0
KFAS 220450Z 13015KT 04/M04 A2987 RMK A01 T00441037  RH  056%=      5-min Rain = 0
KFAS 220455Z 13014KT 04/M04 A2987 RMK A01 T00441038  RH  056%=      5-min Rain = 0
KFAS 220500Z 13014KT 04/M04 A2987 RMK A01 T00441038  RH  056%=      5-min Rain = 0
KFAS 220505Z 13013KT 04/M04 A2987 RMK A01 T00431039  RH  055%=      5-min Rain = 0
KFAS 220510Z 13013KT 04/M04 A2987 RMK A01 T00431040  RH  055%=      5-min Rain = 0
KFAS 220515Z 13013KT 04/M04 A2987 RMK A01 T00411041  RH  055%=      5-min Rain = 0
KFAS 220520Z 13011KT 04/M04 A2987 RMK A01 T00391043  RH  055%=      5-min Rain = 0
KFAS 220525Z 13010KT 04/M04 A2987 RMK A01 T00381044  RH  055%=      5-min Rain = 0
KFAS 220530Z 12009KT 04/M04 A2988 RMK A01 T00371044  RH  055%=      5-min Rain = 0
KFAS 220535Z 12010KT 04/M05 A2988 RMK A01 T00361046  RH  055%=      5-min Rain = 0
KFAS 220540Z 12009KT 04/M05 A2988 RMK A01 T00361048  RH  054%=      5-min Rain = 0
KFAS 220545Z 12010KT 04/M05 A2988 RMK A01 T00351050  RH  054%=      5-min Rain = 0
KFAS 220550Z 11009KT 04/M05 A2988 RMK A01 T00351051  RH  054%=      5-min Rain = 0
KFAS 220555Z 11009KT 03/M05 A2988 RMK A01 T00341053  RH  053%=      5-min Rain = 0

Page generated in 0.01 seconds.